.
WxDataArchive / Data Records for 2011-06-28
2011-06-27 June 2011 2011-06-29

Data Records for Tuesday, 28 June 2011

Time	Temp	Chill	HIndex	Humid	Dewpt	 Wind 	HiWind	WindDir	Rain 	Barom 
-----	----	-----	------	-----	-----	------	------	-------	-----	----- 
00:00	75.1	75.1	76.4	74	66.2	0	1	270	0.00	29.832 
00:05	74.9	74.9	74.9	75	66.4	0	1	270	0.00	29.832 
00:10	74.7	74.7	74.7	75	66.2	0	1	270	0.00	29.832 
00:15	74.6	74.6	74.6	75	66.1	0	1	270	0.00	29.830 
00:20	74.4	74.4	74.4	76	66.3	0	1	270	0.00	29.830 
00:25	74.2	74.2	74.2	76	66.1	0	1	270	0.00	29.830 
00:30	74.2	74.2	74.2	76	66.1	0	1	270	0.00	29.832 
00:35	74.0	74.0	74.0	76	65.9	0	0	---	0.00	29.832 
00:40	73.9	73.9	73.9	76	65.8	0	1	270	0.00	29.832 
00:45	73.7	73.7	73.7	77	66.0	0	1	270	0.00	29.834 
00:50	73.5	73.5	73.5	77	65.8	0	1	270	0.00	29.834 
00:55	73.5	73.5	73.5	77	65.8	0	1	270	0.00	29.834 
01:00	73.5	73.5	73.5	77	65.8	0	1	270	0.00	29.833 
01:05	73.5	73.5	73.5	77	65.8	0	1	270	0.00	29.833 
01:10	73.5	73.5	73.5	77	65.8	0	2	270	0.00	29.833 
01:15	73.5	73.5	73.5	77	65.8	0	1	270	0.00	29.833 
01:20	73.3	73.3	73.3	77	65.6	0	2	270	0.00	29.833 
01:25	73.2	73.2	73.2	77	65.5	0	1	270	0.00	29.833 
01:30	73.2	73.2	73.2	78	65.9	0	2	270	0.00	29.833 
01:35	73.0	73.0	73.0	78	65.7	0	2	270	0.00	29.833 
01:40	73.0	73.0	73.0	78	65.7	0	2	270	0.00	29.833 
01:45	72.8	72.8	72.8	79	65.9	0	1	270	0.00	29.834 
01:50	72.7	72.7	72.7	79	65.8	0	3	270	0.00	29.834 
01:55	72.5	72.5	72.5	79	65.6	0	1	270	0.00	29.834 
02:00	72.5	72.5	72.5	80	66.0	0	2	270	0.00	29.835 
02:05	72.3	72.3	72.3	80	65.8	0	4	270	0.00	29.835 
02:10	72.3	72.3	72.3	80	65.8	0	2	270	0.00	29.835 
02:15	72.1	72.1	72.1	81	65.9	0	1	270	0.00	29.834 
02:20	72.1	72.1	72.1	81	65.9	1	2	270	0.00	29.834 
02:25	72.0	72.0	72.0	81	65.8	0	2	270	0.00	29.834 
02:30	72.0	72.0	72.0	81	65.8	0	2	270	0.00	29.833 
02:35	71.8	71.8	71.8	81	65.6	1	3	270	0.00	29.833 
02:40	71.8	71.8	71.8	82	66.0	0	1	270	0.00	29.833 
02:45	71.6	71.6	71.6	82	65.8	0	2	270	0.00	29.831 
02:50	71.6	71.6	71.6	82	65.8	0	3	270	0.00	29.831 
02:55	71.5	71.5	71.5	82	65.7	0	2	270	0.00	29.831 
03:00	71.5	71.5	71.5	82	65.7	0	2	270	0.00	29.824 
03:05	71.5	71.5	71.5	83	66.1	0	2	270	0.00	29.824 
03:10	71.3	71.3	71.3	83	65.9	0	2	270	0.00	29.824 
03:15	71.3	71.3	71.3	83	65.9	0	2	270	0.00	29.823 
03:20	71.3	71.3	71.3	83	65.9	0	2	270	0.00	29.823 
03:25	71.1	71.1	71.1	83	65.7	0	2	270	0.00	29.823 
03:30	71.1	71.1	71.1	83	65.7	0	2	270	0.00	29.821 
03:35	71.1	71.1	71.1	83	65.7	0	1	270	0.00	29.821 
03:40	71.1	71.1	71.1	83	65.7	0	2	270	0.00	29.821 
03:45	70.9	70.9	70.9	84	65.8	0	2	270	0.00	29.819 
03:50	71.1	71.1	71.1	84	66.0	1	3	270	0.00	29.819 
03:55	71.1	71.1	71.1	84	66.0	1	3	270	0.00	29.819 
04:00	71.1	71.1	71.1	84	66.0	1	3	270	0.00	29.821 
04:05	71.1	71.1	71.1	84	66.0	1	5	270	0.00	29.821 
04:10	71.1	71.1	71.1	84	66.0	1	3	270	0.00	29.821 
04:15	71.1	71.1	71.1	84	66.0	1	4	270	0.00	29.821 
04:20	71.1	71.1	71.1	84	66.0	2	4	270	0.00	29.821 
04:25	71.1	71.1	71.1	84	66.0	1	3	270	0.00	29.821 
04:30	70.9	70.9	70.9	84	65.8	1	3	270	0.00	29.825 
04:35	70.9	70.9	70.9	84	65.8	2	4	270	0.00	29.825 
04:40	70.8	70.8	70.8	84	65.7	1	3	270	0.00	29.825 
04:45	70.8	70.8	70.8	85	66.1	1	3	270	0.00	29.828 
04:50	70.6	70.6	70.6	85	65.9	2	4	270	0.00	29.828 
04:55	70.6	70.6	70.6	85	65.9	2	4	270	0.00	29.828 
05:00	70.4	70.4	70.4	85	65.7	1	3	270	0.00	29.830 
05:05	70.3	70.3	70.3	86	65.9	2	4	270	0.00	29.830 
05:10	70.3	70.3	70.3	86	65.9	2	6	270	0.00	29.830 
05:15	70.3	70.3	70.3	86	65.9	1	5	270	0.00	29.834 
05:20	70.1	70.1	70.1	86	65.7	2	4	270	0.00	29.834 
05:25	70.1	70.1	70.1	86	65.7	1	3	270	0.00	29.834 
05:30	70.1	70.1	70.1	85	65.4	1	4	270	0.00	29.841 
05:35	69.9	69.9	69.9	85	65.2	1	4	270	0.00	29.841 
05:40	69.9	69.9	69.9	85	65.2	1	4	270	0.00	29.841 
05:45	69.9	69.9	69.9	85	65.2	1	4	270	0.00	29.841 
05:50	69.8	69.8	69.8	84	64.7	1	4	270	0.00	29.841 
05:55	69.8	69.8	69.8	84	64.7	1	3	270	0.00	29.841 
06:00	69.6	69.6	69.6	84	64.5	2	5	270	0.00	29.849 
06:05	69.6	69.6	69.6	84	64.5	1	4	270	0.00	29.849 
06:10	69.3	69.3	69.3	83	63.9	1	3	270	0.00	29.849 
06:15	69.3	69.3	69.3	82	63.6	1	3	292	0.00	29.857 
06:20	69.3	69.3	69.3	82	63.6	1	3	292	0.00	29.857 
06:25	69.1	69.1	69.1	82	63.4	1	3	292	0.00	29.857 
06:30	69.1	69.1	69.1	81	63.0	1	3	292	0.00	29.862 
06:35	68.9	68.9	68.9	80	62.5	1	3	315	0.00	29.862 
06:40	68.9	68.9	68.9	79	62.1	0	2	315	0.00	29.862 
06:45	68.9	68.9	68.9	78	61.7	1	5	315	0.00	29.867 
06:50	68.9	68.9	68.9	78	61.7	1	3	270	0.00	29.867 
06:55	68.9	68.9	68.9	76	61.0	0	3	315	0.00	29.867 
07:00	68.9	68.9	68.9	75	60.6	1	4	292	0.00	29.874 
07:05	68.9	68.9	68.9	74	60.3	1	6	292	0.00	29.874 
07:10	68.9	68.9	68.9	74	60.3	0	2	270	0.00	29.874 
07:15	68.9	68.9	68.9	73	59.9	1	4	270	0.00	29.883 
07:20	68.9	68.9	68.9	73	59.9	1	2	270	0.00	29.883 
07:25	68.9	68.9	68.9	73	59.9	1	4	270	0.00	29.883 
07:30	69.1	69.1	69.1	72	59.7	1	3	270	0.00	29.884 
07:35	69.3	69.3	69.3	70	59.1	2	6	270	0.00	29.884 
07:40	69.3	69.3	69.3	70	59.1	1	4	270	0.00	29.884 
07:45	69.4	69.4	69.4	71	59.6	1	3	270	0.00	29.883 
07:50	69.4	69.4	69.4	70	59.2	2	5	315	0.00	29.883 
07:55	69.4	69.4	69.4	69	58.8	2	6	270	0.00	29.883 
08:00	69.6	69.6	69.6	69	59.0	1	4	270	0.00	29.885 
08:05	69.8	69.8	69.8	69	59.2	2	6	292	0.00	29.885 
08:10	69.9	69.9	69.9	68	58.8	1	3	270	0.00	29.885 
08:15	70.3	70.3	70.3	66	58.4	2	6	270	0.00	29.888 
08:20	70.4	70.4	70.4	65	58.1	2	5	270	0.00	29.888 
08:25	70.8	70.8	70.8	63	57.6	2	4	270	0.00	29.888 
08:30	71.1	71.1	71.1	62	57.4	1	4	270	0.00	29.891 
08:35	71.5	71.5	71.5	62	57.8	1	3	270	0.00	29.891 
08:40	71.6	71.6	71.6	58	56.0	1	3	270	0.00	29.891 
08:45	72.0	72.0	72.0	57	55.9	2	7	270	0.00	29.895 
08:50	71.8	71.8	71.8	56	55.2	3	7	270	0.00	29.895 
08:55	72.0	72.0	72.0	55	54.9	3	6	270	0.00	29.895 
09:00	72.1	72.1	72.1	55	55.0	2	4	292	0.00	29.894 
09:05	72.3	72.3	72.3	54	54.7	2	6	292	0.00	29.894 
09:10	72.5	72.5	72.5	54	54.9	2	6	270	0.00	29.894 
09:15	72.7	72.7	72.7	54	55.1	2	6	292	0.00	29.891 
09:20	72.8	72.8	72.8	54	55.2	2	5	270	0.00	29.891 
09:25	73.3	73.3	73.3	54	55.6	2	4	270	0.00	29.891 
09:30	73.3	73.3	73.3	53	55.1	2	6	270	0.00	29.897 
09:35	73.3	73.3	73.3	53	55.1	3	6	315	0.00	29.897 
09:40	73.3	73.3	73.3	52	54.6	3	6	292	0.00	29.897 
09:45	73.2	73.2	73.2	51	54.0	4	9	270	0.00	29.901 
09:50	73.0	73.0	73.0	52	54.3	3	9	315	0.00	29.901 
09:55	73.2	73.2	73.2	52	54.5	4	7	270	0.00	29.901 
10:00	73.3	73.3	73.3	51	54.1	3	6	270	0.00	29.902 
10:05	73.5	73.5	73.5	52	54.8	2	6	292	0.00	29.902 
10:10	73.7	73.7	73.7	50	53.9	3	6	292	0.00	29.902 
10:15	73.9	73.9	73.9	50	54.1	3	5	270	0.00	29.902 
10:20	74.4	74.4	74.4	50	54.5	3	7	270	0.00	29.902 
10:25	74.4	74.4	74.4	50	54.5	3	7	270	0.00	29.902 
10:30	74.6	74.6	74.6	50	54.7	2	5	292	0.00	29.901 
10:35	74.7	74.7	74.7	50	54.8	3	5	292	0.00	29.901 
10:40	74.7	74.7	74.7	50	54.8	4	9	292	0.00	29.901 
10:45	75.1	75.1	77.7	48	54.1	4	6	270	0.00	29.903 
10:50	75.1	75.1	77.7	48	54.1	4	7	270	0.00	29.903 
10:55	75.1	75.1	77.7	48	54.1	4	10	292	0.00	29.903 
11:00	74.9	74.9	74.9	48	53.9	4	9	315	0.00	29.904 
11:05	75.1	75.1	77.7	49	54.6	4	6	270	0.00	29.904 
11:10	75.4	75.4	77.8	48	54.3	3	9	315	0.00	29.904 
11:15	75.4	75.4	77.8	47	53.7	3	7	315	0.00	29.914 
11:20	75.4	75.4	77.8	48	54.3	3	7	292	0.00	29.914 
11:25	75.4	75.4	77.8	49	54.9	3	8	270	0.00	29.914 
11:30	76.0	76.0	78.1	49	55.4	3	6	270	0.00	29.919 
11:35	76.1	76.1	78.1	47	54.4	3	6	315	0.00	29.919 
11:40	76.0	76.0	78.0	46	53.7	4	9	292	0.00	29.919 
11:45	75.8	75.8	77.9	46	53.5	3	6	292	0.00	29.932 
11:50	75.4	75.4	77.8	47	53.7	4	9	315	0.00	29.932 
11:55	75.4	75.4	77.8	47	53.7	4	7	292	0.00	29.932 
12:00	75.4	75.4	77.8	49	54.9	4	7	270	0.00	29.935 
12:05	75.4	75.4	77.8	50	55.4	4	7	270	0.00	29.935 
12:10	75.6	75.6	77.9	49	55.1	4	7	270	0.00	29.935 
12:15	75.6	75.6	77.9	49	55.1	2	6	315	0.00	29.935 
12:20	75.4	75.4	77.8	47	53.7	3	8	315	0.00	29.935 
12:25	75.3	75.3	77.7	49	54.8	4	11	270	0.00	29.935 
12:30	75.4	75.4	77.8	50	55.4	4	6	270	0.00	29.936 
12:35	75.8	75.8	78.0	48	54.7	4	7	270	0.00	29.936 
12:40	75.6	75.6	77.8	46	53.3	3	11	315	0.00	29.936 
12:45	75.4	75.4	77.8	46	53.2	5	10	270	0.00	29.935 
12:50	75.4	75.4	77.8	47	53.7	3	9	315	0.00	29.935 
12:55	75.4	75.4	77.7	45	52.6	4	8	315	0.00	29.935 
13:00	75.6	75.6	77.9	47	53.9	3	6	292	0.00	29.935 
13:05	75.8	75.8	78.0	48	54.7	3	6	315	0.00	29.935 
13:10	75.8	75.8	77.9	46	53.5	3	6	292	0.00	29.935 
13:15	76.0	76.0	78.0	45	53.1	4	7	292	0.00	29.936 
13:20	75.8	75.8	77.9	44	52.3	4	9	315	0.00	29.936 
13:25	75.8	75.8	77.9	45	52.9	4	10	292	0.00	29.936 
13:30	76.3	76.3	78.1	46	54.0	3	7	292	0.00	29.935 
13:35	76.7	76.7	78.2	43	52.5	4	9	292	0.00	29.935 
13:40	76.3	76.3	78.0	43	52.1	4	7	292	0.00	29.935 
13:45	76.0	76.0	78.0	44	52.5	5	10	270	0.00	29.935 
13:50	75.8	75.8	77.9	45	52.9	4	7	315	0.00	29.935 
13:55	76.3	76.3	78.1	44	52.8	4	7	270	0.00	29.935 
14:00	76.3	76.3	78.1	45	53.4	4	9	270	0.00	29.927 
14:05	76.5	76.5	78.2	45	53.6	4	8	315	0.00	29.927 
14:10	76.7	76.7	78.3	45	53.7	3	9	270	0.00	29.927 
14:15	77.0	77.0	78.5	46	54.6	3	7	315	0.00	29.931 
14:20	77.0	77.0	78.4	45	54.0	4	10	270	0.00	29.931 
14:25	77.4	77.4	78.6	45	54.4	3	7	270	0.00	29.931 
14:30	77.0	77.0	78.5	48	55.8	4	9	270	0.00	29.935 
14:35	77.0	77.0	78.4	44	53.4	3	7	270	0.00	29.935 
14:40	76.8	76.8	78.4	46	54.4	3	7	315	0.00	29.935 
14:45	76.8	76.8	78.4	46	54.4	4	11	270	0.00	29.932 
14:50	76.8	76.8	78.4	46	54.4	5	11	270	0.00	29.932 
14:55	76.5	76.5	78.2	44	52.9	4	7	292	0.00	29.932 
15:00	76.7	76.7	78.3	45	53.7	4	8	315	0.00	29.936 
15:05	76.7	76.7	78.3	46	54.3	3	7	292	0.00	29.936 
15:10	77.0	77.0	78.5	46	54.6	2	5	315	0.00	29.936 
15:15	76.8	76.8	78.4	46	54.4	3	7	315	0.00	29.936 
15:20	77.2	77.2	78.6	46	54.8	3	10	292	0.00	29.936 
15:25	77.0	77.0	78.4	45	54.0	3	7	292	0.00	29.936 
15:30	77.4	77.4	78.6	45	54.4	2	5	292	0.00	29.937 
15:35	77.2	77.2	78.5	45	54.2	5	10	292	0.00	29.937 
15:40	76.8	76.8	78.4	46	54.4	3	7	292	0.00	29.937 
15:45	77.0	77.0	78.4	45	54.0	3	7	315	0.00	29.945 
15:50	77.2	77.2	78.5	45	54.2	4	8	292	0.00	29.945 
15:55	77.2	77.2	78.6	46	54.8	3	6	315	0.00	29.945 
16:00	77.4	77.4	78.7	47	55.6	4	8	270	0.00	29.947 
16:05	77.9	77.9	79.0	46	55.4	2	4	270	0.00	29.947 
16:10	77.6	77.6	78.8	46	55.2	4	7	270	0.00	29.947 
16:15	77.0	77.0	78.4	44	53.4	4	7	315	0.00	29.951 
16:20	77.4	77.4	78.6	45	54.4	3	5	292	0.00	29.951 
16:25	77.0	77.0	78.4	45	54.0	4	7	270	0.00	29.951 
16:30	77.0	77.0	78.4	45	54.0	3	5	315	0.00	29.952 
16:35	77.2	77.2	78.5	45	54.2	2	4	315	0.00	29.952 
16:40	77.4	77.4	78.6	45	54.4	2	6	315	0.00	29.952 
16:45	77.4	77.4	78.7	46	55.0	3	6	315	0.00	29.958 
16:50	77.0	77.0	78.5	46	54.6	5	10	270	0.00	29.958 
16:55	76.8	76.8	78.4	46	54.4	4	9	270	0.00	29.958 
17:00	77.2	77.2	78.6	46	54.8	3	6	292	0.00	29.964 
17:05	77.2	77.2	78.6	46	54.8	3	7	292	0.00	29.964 
17:10	77.4	77.4	78.6	45	54.4	3	7	292	0.00	29.964 
17:15	77.2	77.2	78.5	44	53.6	3	6	315	0.00	29.966 
17:20	77.0	77.0	78.5	46	54.6	3	6	292	0.00	29.966 
17:25	77.0	77.0	78.4	45	54.0	3	7	270	0.00	29.966 
17:30	76.8	76.8	78.4	46	54.4	2	6	315	0.00	29.967 
17:35	77.2	77.2	78.6	46	54.8	1	3	292	0.00	29.967 
17:40	77.2	77.2	78.5	45	54.2	3	6	315	0.00	29.967 
17:45	76.7	76.7	78.3	46	54.3	3	9	292	0.00	29.973 
17:50	76.3	76.3	78.1	46	54.0	3	7	292	0.00	29.973 
17:55	76.1	76.1	78.0	45	53.2	3	6	315	0.00	29.973 
18:00	76.0	76.0	78.0	46	53.7	3	10	270	0.00	29.978 
18:05	75.6	75.6	77.9	47	53.9	3	9	270	0.00	29.978 
18:10	75.6	75.6	77.9	48	54.5	2	6	270	0.00	29.978 
18:15	75.6	75.6	77.9	49	55.1	3	7	270	0.00	29.979 
18:20	75.6	75.6	77.9	48	54.5	2	7	292	0.00	29.979 
18:25	75.3	75.3	77.7	49	54.8	2	7	338	0.00	29.979 
18:30	75.1	75.1	77.7	47	53.5	3	6	315	0.00	29.978 
18:35	74.7	74.7	74.7	49	54.3	2	6	315	0.00	29.978 
18:40	74.7	74.7	74.7	50	54.8	1	5	315	0.00	29.978 
18:45	74.7	74.7	74.7	48	53.7	2	4	315	0.00	29.981 
18:50	74.7	74.7	74.7	49	54.3	2	4	292	0.00	29.981 
18:55	74.6	74.6	74.6	50	54.7	1	3	292	0.00	29.981 
19:00	74.4	74.4	74.4	50	54.5	2	5	315	0.00	29.985 
19:05	74.2	74.2	74.2	49	53.8	3	6	315	0.00	29.985 
19:10	74.2	74.2	74.2	51	54.9	2	6	315	0.00	29.985 
19:15	74.0	74.0	74.0	50	54.2	2	7	315	0.00	29.985 
19:20	73.9	73.9	73.9	50	54.1	3	7	270	0.00	29.985 
19:25	73.9	73.9	73.9	51	54.6	1	5	270	0.00	29.985 
19:30	73.5	73.5	73.5	50	53.7	3	7	270	0.00	29.987 
19:35	73.3	73.3	73.3	50	53.5	3	7	315	0.00	29.987 
19:40	73.3	73.3	73.3	51	54.1	2	5	292	0.00	29.987 
19:45	73.2	73.2	73.2	51	54.0	1	5	270	0.00	29.991 
19:50	73.0	73.0	73.0	51	53.8	2	4	315	0.00	29.991 
19:55	72.8	72.8	72.8	51	53.6	1	3	315	0.00	29.991 
20:00	72.7	72.7	72.7	50	53.0	2	5	292	0.00	29.997 
20:05	72.5	72.5	72.5	52	53.9	1	3	292	0.00	29.997 
20:10	72.3	72.3	72.3	51	53.1	1	5	292	0.00	29.997 
20:15	72.3	72.3	72.3	50	52.6	3	5	292	0.00	29.994 
20:20	72.3	72.3	72.3	51	53.1	1	4	292	0.00	29.994 
20:25	72.1	72.1	72.1	52	53.5	1	3	292	0.00	29.994 
20:30	72.0	72.0	72.0	53	53.9	1	5	292	0.00	30.000 
20:35	71.6	71.6	71.6	54	54.1	0	1	292	0.00	30.000 
20:40	71.5	71.5	71.5	54	54.0	0	1	292	0.00	30.000 
20:45	71.1	71.1	71.1	54	53.6	0	2	292	0.00	30.002 
20:50	70.9	70.9	70.9	54	53.4	0	1	292	0.00	30.002 
20:55	70.9	70.9	70.9	54	53.4	1	3	292	0.00	30.002 
21:00	70.8	70.8	70.8	54	53.3	0	2	292	0.00	30.003 
21:05	70.4	70.4	70.4	55	53.4	0	1	292	0.00	30.003 
21:10	70.3	70.3	70.3	54	52.9	0	3	292	0.00	30.003 
21:15	70.1	70.1	70.1	55	53.2	0	0	---	0.00	30.004 
21:20	69.8	69.8	69.8	55	52.9	0	1	292	0.00	30.004 
21:25	69.6	69.6	69.6	56	53.2	0	0	---	0.00	30.004 
21:30	69.1	69.1	69.1	57	53.2	0	0	---	0.00	30.001 
21:35	68.8	68.8	68.8	58	53.4	0	0	---	0.00	30.001 
21:40	68.4	68.4	68.4	58	53.0	0	0	---	0.00	30.001 
21:45	67.9	67.9	67.9	59	53.0	0	0	---	0.00	30.002 
21:50	67.6	67.6	67.6	60	53.2	0	0	---	0.00	30.002 
21:55	67.3	67.3	67.3	60	52.9	0	0	---	0.00	30.002 
22:00	66.9	66.9	66.9	61	53.0	0	0	---	0.00	30.004 
22:05	66.6	66.6	66.6	62	53.2	0	0	---	0.00	30.004 
22:10	66.4	66.4	66.4	63	53.4	0	0	---	0.00	30.004 
22:15	66.1	66.1	66.1	64	53.6	0	0	---	0.00	30.014 
22:20	65.8	65.8	65.8	65	53.7	0	0	---	0.00	30.014 
22:25	65.5	65.5	65.5	65	53.4	0	0	---	0.00	30.014 
22:30	65.2	65.2	65.2	66	53.5	0	0	---	0.00	30.017 
22:35	64.7	64.7	64.7	67	53.5	0	0	---	0.00	30.017 
22:40	64.3	64.3	64.3	68	53.5	0	0	---	0.00	30.017 
22:45	63.9	63.9	63.9	69	53.5	0	0	---	0.00	30.020 
22:50	63.5	63.5	63.5	70	53.5	0	0	---	0.00	30.020 
22:55	63.4	63.4	63.4	71	53.8	0	0	---	0.00	30.020 
23:00	63.1	63.1	63.1	72	53.9	0	0	---	0.00	30.020 
23:05	62.7	62.7	62.7	73	53.9	0	0	---	0.00	30.020 
23:10	62.4	62.4	62.4	74	54.0	0	0	---	0.00	30.020 
23:15	62.1	62.1	62.1	75	54.1	0	0	---	0.00	30.022 
23:20	62.0	62.0	62.0	76	54.3	0	0	---	0.00	30.022 
23:25	61.8	61.8	61.8	77	54.5	0	0	---	0.00	30.022 
23:30	61.5	61.5	61.5	77	54.2	0	0	---	0.00	30.021 
23:35	61.3	61.3	61.3	78	54.4	0	0	---	0.00	30.021 
23:40	61.2	61.2	61.2	79	54.6	0	0	---	0.00	30.021 
23:45	61.0	61.0	61.0	79	54.4	0	0	---	0.00	30.018 
23:50	60.9	60.9	60.9	79	54.3	0	0	---	0.00	30.018 
23:55	60.7	60.7	60.7	80	54.5	0	0	---	0.00	30.018 

CoCoRaHS
IN-AL-39
A2 Web Hosting
Creative Commons License
GoDaddy
search engine by freefind advanced

loaded 2018-11-18 11:59:03 • last modified 2010-11-18 10:43:29
Privacy PolicyDisclaimer
• wx.awcolley.com is powered by PmWiki v.2002016 •
• all content (unless otherwise noted) © 2018 A W Colley